Time;durP1;ratioP1;P1;durP2;ratioP2;P2;SDS_P1;SDS_P2;PMS_P1;PMS_P2;Temp;Humidity;BMP_temperature;BMP_pressure;BME280_temperature;BME280_humidity;BME280_pressure;Samples;Min_cycle;Max_cycle;Signal;HPM_P1;HPM_P2
2021/03/23 00:00:16;;;;;;;18.92;11.60;;;;;;;;;;4998254;28;20211;-81
2021/03/23 00:02:45;;;;;;;18.33;11.18;;;;;;;;;;5001591;28;20247;-81
2021/03/23 00:05:11;;;;;;;18.55;10.80;;;;;;;;;;5015378;28;20180;-81
2021/03/23 00:07:37;;;;;;;21.10;11.02;;;;;;;;;;5005074;28;20546;-81
2021/03/23 00:10:04;;;;;;;20.97;11.80;;;;;;;;;;5000624;28;20235;-81
2021/03/23 00:12:30;;;;;;;19.05;13.18;;;;;;;;;;4995085;28;20506;-81
2021/03/23 00:14:56;;;;;;;23.35;12.15;;;;;;;;;;4996538;28;20183;-81
2021/03/23 00:17:22;;;;;;;21.83;12.70;;;;;;;;;;5001040;28;20207;-81
2021/03/23 00:19:47;;;;;;;17.70;10.75;;;;;;;;;;5000607;28;20198;-81
2021/03/23 00:22:13;;;;;;;20.08;11.55;;;;;;;;;;5002995;28;20306;-81
2021/03/23 00:24:39;;;;;;;19.67;12.30;;;;;;;;;;4999276;28;20575;-81
2021/03/23 00:27:06;;;;;;;17.43;10.30;;;;;;;;;;5000224;28;20446;-81
2021/03/23 00:29:32;;;;;;;20.90;10.02;;;;;;;;;;5002056;28;20452;-81
2021/03/23 00:31:58;;;;;;;18.05;12.00;;;;;;;;;;4997236;28;20720;-81
2021/03/23 00:34:24;;;;;;;18.98;11.70;;;;;;;;;;5001163;28;20186;-81
2021/03/23 00:36:50;;;;;;;18.40;10.13;;;;;;;;;;5000912;28;20199;-81
2021/03/23 00:39:16;;;;;;;21.38;10.52;;;;;;;;;;5000791;28;20435;-81
2021/03/23 00:41:43;;;;;;;19.35;11.65;;;;;;;;;;4998069;28;20184;-81
2021/03/23 00:44:10;;;;;;;22.25;12.27;;;;;;;;;;5002232;28;20265;-81
2021/03/23 00:46:36;;;;;;;20.60;10.93;;;;;;;;;;5000614;28;20235;-81
2021/03/23 00:49:02;;;;;;;23.70;11.23;;;;;;;;;;4998915;28;20194;-81
2021/03/23 00:51:28;;;;;;;21.38;13.50;;;;;;;;;;4994228;28;20274;-81
2021/03/23 00:53:54;;;;;;;21.90;12.18;;;;;;;;;;5003356;28;20187;-82
2021/03/23 00:56:20;;;;;;;23.85;12.15;;;;;;;;;;4988841;28;20209;-81
2021/03/23 00:58:46;;;;;;;21.75;12.32;;;;;;;;;;5002963;28;20204;-81
2021/03/23 01:01:12;;;;;;;24.88;12.93;;;;;;;;;;5002169;28;20263;-81
2021/03/23 01:03:38;;;;;;;21.92;13.23;;;;;;;;;;4999273;28;20582;-81
2021/03/23 01:06:04;;;;;;;19.23;11.15;;;;;;;;;;5001598;28;20555;-81
2021/03/23 01:08:30;;;;;;;20.95;11.63;;;;;;;;;;5000397;28;20191;-81
2021/03/23 01:10:56;;;;;;;19.58;11.40;;;;;;;;;;5000386;28;20218;-81
2021/03/23 01:13:22;;;;;;;18.95;12.38;;;;;;;;;;4997558;28;20221;-82
2021/03/23 01:15:48;;;;;;;18.98;11.15;;;;;;;;;;4998287;28;20199;-81
2021/03/23 01:18:14;;;;;;;21.58;12.18;;;;;;;;;;4999986;28;20184;-82
2021/03/23 01:20:40;;;;;;;15.75;11.63;;;;;;;;;;5002265;28;20238;-81
2021/03/23 01:23:06;;;;;;;16.23;9.80;;;;;;;;;;4988467;28;20665;-82
2021/03/23 01:25:32;;;;;;;15.15;10.27;;;;;;;;;;5000510;28;20186;-81
2021/03/23 01:27:58;;;;;;;16.45;10.65;;;;;;;;;;4996500;28;20771;-82
2021/03/23 01:30:25;;;;;;;13.50;10.07;;;;;;;;;;4998268;28;20192;-81
2021/03/23 01:32:52;;;;;;;24.42;11.68;;;;;;;;;;5002487;28;20187;-82
2021/03/23 01:35:18;;;;;;;13.52;9.98;;;;;;;;;;4999445;28;20189;-81
2021/03/23 01:37:44;;;;;;;15.13;10.13;;;;;;;;;;4998798;28;20615;-81
2021/03/23 01:40:11;;;;;;;16.00;9.23;;;;;;;;;;4999230;28;20175;-81
2021/03/23 01:42:38;;;;;;;15.02;10.82;;;;;;;;;;4992817;28;20211;-81
2021/03/23 01:45:19;;;;;;;15.00;9.95;;;;;;;;;;4997088;28;20230;-82
2021/03/23 01:47:46;;;;;;;17.48;10.15;;;;;;;;;;4995785;28;20188;-82
2021/03/23 01:50:12;;;;;;;12.60;9.93;;;;;;;;;;5002898;28;20195;-81
2021/03/23 01:52:38;;;;;;;13.35;8.75;;;;;;;;;;5002972;28;20189;-81
2021/03/23 01:55:06;;;;;;;14.57;10.93;;;;;;;;;;5000722;28;21559;-81
2021/03/23 01:57:34;;;;;;;20.45;11.27;;;;;;;;;;4997565;28;20211;-82
2021/03/23 02:00:00;;;;;;;20.00;11.52;;;;;;;;;;5001207;28;20567;-81
2021/03/23 02:02:28;;;;;;;22.52;9.77;;;;;;;;;;4998668;28;20244;-81
2021/03/23 02:04:54;;;;;;;18.17;9.57;;;;;;;;;;4999674;28;20171;-81
2021/03/23 02:07:20;;;;;;;14.07;9.13;;;;;;;;;;5014142;28;20179;-82
2021/03/23 02:09:46;;;;;;;20.65;10.45;;;;;;;;;;4996999;28;20191;-81
2021/03/23 02:12:18;;;;;;;16.15;9.65;;;;;;;;;;4998566;28;20277;-82
2021/03/23 02:14:45;;;;;;;13.60;10.45;;;;;;;;;;5003509;28;20242;-82
2021/03/23 02:17:16;;;;;;;17.02;10.85;;;;;;;;;;5012329;28;20283;-81
2021/03/23 02:19:42;;;;;;;15.45;10.15;;;;;;;;;;5016011;28;20195;-81
2021/03/23 02:22:34;;;;;;;17.73;11.82;;;;;;;;;;5012735;28;20591;-81
2021/03/23 02:25:03;;;;;;;13.57;9.20;;;;;;;;;;4993007;28;20193;-81
2021/03/23 02:27:29;;;;;;;18.60;12.30;;;;;;;;;;4997265;28;20192;-82
2021/03/23 02:29:58;;;;;;;15.43;10.15;;;;;;;;;;4997222;28;20198;-82
2021/03/23 02:32:24;;;;;;;15.35;11.00;;;;;;;;;;5002072;28;20183;-82
2021/03/23 02:34:50;;;;;;;19.48;11.23;;;;;;;;;;4997112;28;20179;-82
2021/03/23 02:37:17;;;;;;;19.90;10.63;;;;;;;;;;5013512;28;20699;-82
2021/03/23 02:39:43;;;;;;;13.15;10.32;;;;;;;;;;4997425;28;20184;-82
2021/03/23 02:42:10;;;;;;;17.60;11.50;;;;;;;;;;4998863;28;20250;-82
2021/03/23 02:44:37;;;;;;;18.85;11.07;;;;;;;;;;5001351;28;20263;-82
2021/03/23 02:47:03;;;;;;;15.10;11.40;;;;;;;;;;4995693;28;20260;-81
2021/03/23 02:49:29;;;;;;;22.85;12.43;;;;;;;;;;4999407;28;20180;-82
2021/03/23 02:51:55;;;;;;;13.73;10.68;;;;;;;;;;4995412;28;20240;-81
2021/03/23 02:54:21;;;;;;;20.65;11.55;;;;;;;;;;4996479;28;20245;-82
2021/03/23 02:56:47;;;;;;;17.75;10.18;;;;;;;;;;5000719;28;20199;-82
2021/03/23 02:59:13;;;;;;;20.40;11.23;;;;;;;;;;5001469;28;20244;-81
2021/03/23 03:01:39;;;;;;;16.03;12.07;;;;;;;;;;4997433;28;20192;-81
2021/03/23 03:04:05;;;;;;;16.92;10.57;;;;;;;;;;4997729;28;20462;-81
2021/03/23 03:06:32;;;;;;;18.60;11.80;;;;;;;;;;5000969;28;20202;-81
2021/03/23 03:08:58;;;;;;;20.63;11.98;;;;;;;;;;5000873;28;20235;-81
2021/03/23 03:11:24;;;;;;;18.85;11.48;;;;;;;;;;5005756;28;20227;-81
2021/03/23 03:13:50;;;;;;;15.55;10.85;;;;;;;;;;4999559;28;20214;-81
2021/03/23 03:16:17;;;;;;;20.88;11.15;;;;;;;;;;5001884;28;20248;-81
2021/03/23 03:18:43;;;;;;;18.80;10.82;;;;;;;;;;5002295;28;20188;-81
2021/03/23 03:21:09;;;;;;;17.83;11.32;;;;;;;;;;5002638;28;20211;-81
2021/03/23 03:23:35;;;;;;;20.13;10.77;;;;;;;;;;5003767;28;20189;-82
2021/03/23 03:26:01;;;;;;;17.45;10.63;;;;;;;;;;5001329;28;20179;-81
2021/03/23 03:28:27;;;;;;;17.85;10.27;;;;;;;;;;5005659;28;20190;-82
2021/03/23 03:30:53;;;;;;;16.23;10.05;;;;;;;;;;5000649;28;20183;-81
2021/03/23 03:33:21;;;;;;;17.50;10.68;;;;;;;;;;5000606;28;20195;-81
2021/03/23 03:35:47;;;;;;;18.00;11.35;;;;;;;;;;4999444;28;20203;-81
2021/03/23 03:38:13;;;;;;;15.45;8.90;;;;;;;;;;5001527;28;20211;-81
2021/03/23 03:40:39;;;;;;;17.52;11.50;;;;;;;;;;5001732;28;20182;-81
2021/03/23 03:43:06;;;;;;;11.55;8.75;;;;;;;;;;5001067;28;20186;-81
2021/03/23 03:45:32;;;;;;;19.52;11.35;;;;;;;;;;5001674;28;20187;-81
2021/03/23 03:47:58;;;;;;;18.48;11.02;;;;;;;;;;5003365;28;20191;-81
2021/03/23 03:50:26;;;;;;;15.77;10.20;;;;;;;;;;5001323;28;20218;-81
2021/03/23 03:52:52;;;;;;;15.15;9.93;;;;;;;;;;4998142;28;20179;-80
2021/03/23 03:55:22;;;;;;;15.45;10.25;;;;;;;;;;5015505;28;20167;-81
2021/03/23 03:57:48;;;;;;;13.00;9.43;;;;;;;;;;5000910;28;20214;-81
2021/03/23 04:00:19;;;;;;;13.85;9.80;;;;;;;;;;5001426;28;20184;-81
2021/03/23 04:02:44;;;;;;;20.60;11.85;;;;;;;;;;5003821;28;20258;-81
2021/03/23 04:05:17;;;;;;;19.35;10.80;;;;;;;;;;5000321;28;20183;-82
2021/03/23 04:07:43;;;;;;;14.57;10.20;;;;;;;;;;5001967;28;20598;-80
2021/03/23 04:10:09;;;;;;;22.95;10.93;;;;;;;;;;5000419;28;20202;-81
2021/03/23 04:12:35;;;;;;;17.17;10.00;;;;;;;;;;5000373;28;20238;-81
2021/03/23 04:15:01;;;;;;;22.05;11.50;;;;;;;;;;5002778;28;20187;-81
2021/03/23 04:17:27;;;;;;;22.93;11.00;;;;;;;;;;5000440;28;20207;-81
2021/03/23 04:19:53;;;;;;;18.73;11.57;;;;;;;;;;4991028;28;20439;-81
2021/03/23 04:22:19;;;;;;;21.40;12.38;;;;;;;;;;5003686;28;20194;-81
2021/03/23 04:24:44;;;;;;;21.08;11.18;;;;;;;;;;4999884;28;20176;-81
2021/03/23 04:27:11;;;;;;;18.25;11.43;;;;;;;;;;5000778;28;20555;-81
2021/03/23 04:29:36;;;;;;;17.05;10.63;;;;;;;;;;5003868;28;20198;-81
2021/03/23 04:32:02;;;;;;;17.48;10.50;;;;;;;;;;4999325;28;20199;-81
2021/03/23 04:34:28;;;;;;;17.98;10.40;;;;;;;;;;5000567;28;20176;-81
2021/03/23 04:36:54;;;;;;;15.82;9.35;;;;;;;;;;4999315;28;20222;-81
2021/03/23 04:39:20;;;;;;;16.08;9.23;;;;;;;;;;5001110;28;20218;-81
2021/03/23 04:41:46;;;;;;;14.38;10.05;;;;;;;;;;5004335;28;20179;-82
2021/03/23 04:44:12;;;;;;;22.50;11.20;;;;;;;;;;4999949;28;20191;-81
2021/03/23 04:46:38;;;;;;;20.33;10.63;;;;;;;;;;4997909;28;20430;-81
2021/03/23 04:49:04;;;;;;;13.05;9.75;;;;;;;;;;4998595;28;20189;-81
2021/03/23 04:51:31;;;;;;;14.88;9.43;;;;;;;;;;4998800;28;20203;-82
2021/03/23 04:53:58;;;;;;;14.60;9.85;;;;;;;;;;5002913;28;20198;-82
2021/03/23 04:56:29;;;;;;;14.43;8.38;;;;;;;;;;5000124;28;20227;-81
2021/03/23 04:58:55;;;;;;;15.57;10.48;;;;;;;;;;5004659;28;20188;-81
2021/03/23 05:01:21;;;;;;;19.17;10.23;;;;;;;;;;5015330;28;20179;-81
2021/03/23 05:03:47;;;;;;;19.85;10.88;;;;;;;;;;4998252;28;20198;-81
2021/03/23 05:06:13;;;;;;;21.73;10.35;;;;;;;;;;5000444;28;20210;-81
2021/03/23 05:08:43;;;;;;;17.83;9.38;;;;;;;;;;5002851;28;20236;-81
2021/03/23 05:11:10;;;;;;;19.85;11.23;;;;;;;;;;4998350;28;20273;-81
2021/03/23 05:13:36;;;;;;;15.38;9.40;;;;;;;;;;4995086;28;20187;-81
2021/03/23 05:16:02;;;;;;;14.77;10.05;;;;;;;;;;4998762;28;20281;-81
2021/03/23 05:18:29;;;;;;;16.20;9.20;;;;;;;;;;4998238;28;20196;-81
2021/03/23 05:20:55;;;;;;;19.35;10.30;;;;;;;;;;5002930;28;20265;-82
2021/03/23 05:23:21;;;;;;;20.10;10.77;;;;;;;;;;4999766;28;20195;-82
2021/03/23 05:25:47;;;;;;;19.05;10.45;;;;;;;;;;4999001;28;20229;-82
2021/03/23 05:28:14;;;;;;;15.45;9.48;;;;;;;;;;4998336;28;20179;-82
2021/03/23 05:30:40;;;;;;;15.60;9.75;;;;;;;;;;4999589;28;20191;-82
2021/03/23 05:33:07;;;;;;;15.45;9.48;;;;;;;;;;5000605;28;20188;-81
2021/03/23 05:35:33;;;;;;;14.40;9.07;;;;;;;;;;5000404;28;20751;-82
2021/03/23 05:37:59;;;;;;;20.40;10.15;;;;;;;;;;4996850;28;20179;-82
2021/03/23 05:40:42;;;;;;;20.40;10.18;;;;;;;;;;5000063;28;20183;-82
2021/03/23 05:43:27;;;;;;;16.75;9.60;;;;;;;;;;4998061;28;20179;-82
2021/03/23 05:46:19;;;;;;;24.33;10.20;;;;;;;;;;5002323;28;20194;-82
2021/03/23 05:48:57;;;;;;;13.55;9.18;;;;;;;;;;4998199;28;20210;-82
2021/03/23 05:51:35;;;;;;;16.90;9.65;;;;;;;;;;4999292;28;20236;-81
2021/03/23 05:54:10;;;;;;;15.45;9.93;;;;;;;;;;4992377;28;20187;-82
2021/03/23 05:56:37;;;;;;;16.63;10.10;;;;;;;;;;4999862;28;20211;-82
2021/03/23 05:59:09;;;;;;;21.38;11.07;;;;;;;;;;4996397;28;20219;-81
2021/03/23 06:01:42;;;;;;;14.88;9.20;;;;;;;;;;4998864;28;20171;-81
2021/03/23 06:04:17;;;;;;;18.42;11.55;;;;;;;;;;5013187;28;20199;-82
2021/03/23 06:06:54;;;;;;;18.20;10.20;;;;;;;;;;4994826;28;20621;-81
2021/03/23 06:09:29;;;;;;;20.00;9.70;;;;;;;;;;4999549;28;20258;-81
2021/03/23 06:11:59;;;;;;;17.65;9.65;;;;;;;;;;5001888;28;20751;-82
2021/03/23 06:14:37;;;;;;;18.02;9.60;;;;;;;;;;4998542;28;20226;-82
2021/03/23 06:17:09;;;;;;;18.60;10.10;;;;;;;;;;4997393;28;20207;-82
2021/03/23 06:20:01;;;;;;;19.92;11.02;;;;;;;;;;4999579;28;20178;-82
2021/03/23 06:22:31;;;;;;;19.80;10.07;;;;;;;;;;4961795;29;20188;-82
2021/03/23 06:25:03;;;;;;;18.75;10.43;;;;;;;;;;4942955;28;20198;-82
2021/03/23 06:27:33;;;;;;;21.02;12.52;;;;;;;;;;4943096;29;20211;-82
2021/03/23 06:30:18;;;;;;;17.80;10.95;;;;;;;;;;4943377;29;20184;-82
2021/03/23 06:32:50;;;;;;;20.13;10.63;;;;;;;;;;4961873;28;20224;-81
2021/03/23 06:35:19;;;;;;;20.65;11.68;;;;;;;;;;4957471;28;20181;-82
2021/03/23 06:37:46;;;;;;;20.80;11.82;;;;;;;;;;4945985;28;20204;-82
2021/03/23 06:40:22;;;;;;;16.75;11.55;;;;;;;;;;4964395;28;20188;-82
2021/03/23 06:42:51;;;;;;;19.52;10.02;;;;;;;;;;4946811;29;20188;-82
2021/03/23 06:45:27;;;;;;;16.63;11.68;;;;;;;;;;4946683;28;20190;-82
2021/03/23 06:47:54;;;;;;;21.98;11.63;;;;;;;;;;4965955;28;20192;-82
2021/03/23 06:50:23;;;;;;;17.20;11.40;;;;;;;;;;4965669;28;20603;-81
2021/03/23 06:53:08;;;;;;;19.88;11.82;;;;;;;;;;4965745;28;20197;-81
2021/03/23 06:55:35;;;;;;;21.00;12.13;;;;;;;;;;4966305;28;20191;-82
2021/03/23 06:58:01;;;;;;;18.70;12.30;;;;;;;;;;4965501;28;20252;-82
2021/03/23 07:00:29;;;;;;;19.85;12.05;;;;;;;;;;4995103;28;20681;-81
2021/03/23 07:03:10;;;;;;;20.45;11.90;;;;;;;;;;5004831;28;20183;-82
2021/03/23 07:05:39;;;;;;;20.98;11.25;;;;;;;;;;5004495;28;20597;-82
2021/03/23 07:08:09;;;;;;;19.08;11.38;;;;;;;;;;5001677;28;20237;-81
2021/03/23 07:10:36;;;;;;;16.33;10.68;;;;;;;;;;5004194;28;20290;-81
2021/03/23 07:13:03;;;;;;;21.95;11.63;;;;;;;;;;5003723;28;20183;-81
2021/03/23 07:15:31;;;;;;;20.42;12.43;;;;;;;;;;5003305;28;20190;-81
2021/03/23 07:18:06;;;;;;;21.02;12.75;;;;;;;;;;5000436;28;20215;-81
2021/03/23 07:20:37;;;;;;;22.08;12.30;;;;;;;;;;5001316;28;20652;-80
2021/03/23 07:23:20;;;;;;;29.52;12.63;;;;;;;;;;4999706;28;20191;-80
2021/03/23 07:25:46;;;;;;;28.42;13.10;;;;;;;;;;5013554;28;20214;-80
2021/03/23 07:28:25;;;;;;;26.85;12.27;;;;;;;;;;4996556;28;20183;-80
2021/03/23 07:30:54;;;;;;;24.85;13.45;;;;;;;;;;4997051;28;20179;-80
2021/03/23 07:33:25;;;;;;;16.02;12.10;;;;;;;;;;4999196;28;20187;-80
2021/03/23 07:35:51;;;;;;;24.15;13.02;;;;;;;;;;4998004;28;20648;-80
2021/03/23 07:38:29;;;;;;;18.40;12.48;;;;;;;;;;4997408;28;20190;-80
2021/03/23 07:40:56;;;;;;;19.08;12.65;;;;;;;;;;5001205;28;20242;-80
2021/03/23 07:43:41;;;;;;;24.13;13.60;;;;;;;;;;4998925;28;20234;-79
2021/03/23 07:46:13;;;;;;;22.67;13.55;;;;;;;;;;4992426;28;20184;-80
2021/03/23 07:48:58;;;;;;;22.92;13.52;;;;;;;;;;4995228;28;20613;-79
2021/03/23 07:51:29;;;;;;;22.33;13.68;;;;;;;;;;4994619;28;20188;-79
2021/03/23 07:54:14;;;;;;;22.13;13.10;;;;;;;;;;4998637;28;20636;-79
2021/03/23 07:56:58;;;;;;;22.95;12.43;;;;;;;;;;5003789;28;20673;-79
2021/03/23 07:59:43;;;;;;;22.55;13.82;;;;;;;;;;5013183;28;20226;-79
2021/03/23 08:02:19;;;;;;;27.75;14.07;;;;;;;;;;5002572;28;20619;-79
2021/03/23 08:04:57;;;;;;;23.55;14.75;;;;;;;;;;5000070;28;20178;-79
2021/03/23 08:07:29;;;;;;;22.30;13.43;;;;;;;;;;4992249;28;20614;-80
2021/03/23 08:09:58;;;;;;;23.27;13.38;;;;;;;;;;5011796;28;20198;-80
2021/03/23 08:12:30;;;;;;;21.65;13.75;;;;;;;;;;4998377;28;20749;-79
2021/03/23 08:15:02;;;;;;;25.20;14.05;;;;;;;;;;5018304;28;20214;-79
2021/03/23 08:17:43;;;;;;;19.90;13.55;;;;;;;;;;5002595;28;20210;-79
2021/03/23 08:20:21;;;;;;;21.23;13.20;;;;;;;;;;5000073;28;20179;-80
2021/03/23 08:23:00;;;;;;;21.95;14.88;;;;;;;;;;5002372;28;20182;-80
2021/03/23 08:25:35;;;;;;;26.92;15.23;;;;;;;;;;5000885;28;20175;-79
2021/03/23 08:28:20;;;;;;;24.35;13.80;;;;;;;;;;5003184;28;20186;-80
2021/03/23 08:30:46;;;;;;;21.20;14.13;;;;;;;;;;5001220;28;20255;-79
2021/03/23 08:33:30;;;;;;;25.80;15.20;;;;;;;;;;5001344;28;20223;-79
2021/03/23 08:36:18;;;;;;;22.70;15.30;;;;;;;;;;4993488;28;20461;-79
2021/03/23 08:38:47;;;;;;;22.70;12.90;;;;;;;;;;5004088;28;20644;-79
2021/03/23 08:41:32;;;;;;;22.20;13.55;;;;;;;;;;5012949;28;20182;-80
2021/03/23 08:43:59;;;;;;;24.48;12.23;;;;;;;;;;5002472;28;20207;-78
2021/03/23 08:46:29;;;;;;;25.70;15.38;;;;;;;;;;5005426;28;20191;-80
2021/03/23 08:49:00;;;;;;;22.48;14.15;;;;;;;;;;5004246;28;20214;-80
2021/03/23 08:51:27;;;;;;;25.30;13.65;;;;;;;;;;5000184;28;20191;-79
2021/03/23 08:53:56;;;;;;;22.80;13.50;;;;;;;;;;5001551;28;20283;-80
2021/03/23 08:56:40;;;;;;;24.15;13.68;;;;;;;;;;4998852;28;20719;-80
2021/03/23 08:59:17;;;;;;;24.20;14.85;;;;;;;;;;4997726;28;20191;-79
2021/03/23 09:01:43;;;;;;;24.80;13.52;;;;;;;;;;5001386;28;20179;-80
2021/03/23 09:04:09;;;;;;;29.55;14.57;;;;;;;;;;5000774;28;20171;-80
2021/03/23 09:07:02;;;;;;;24.07;13.27;;;;;;;;;;5003536;28;20195;-80
2021/03/23 09:09:27;;;;;;;23.00;13.20;;;;;;;;;;4938233;29;20445;-80
2021/03/23 09:12:03;;;;;;;19.67;13.00;;;;;;;;;;4941902;29;20232;-79
2021/03/23 09:14:30;;;;;;;21.02;12.95;;;;;;;;;;4943515;29;20894;-80
2021/03/23 09:16:59;;;;;;;20.38;12.95;;;;;;;;;;4942321;29;20215;-80
2021/03/23 09:19:33;;;;;;;20.30;11.60;;;;;;;;;;4938101;29;20214;-80
2021/03/23 09:21:59;;;;;;;14.90;9.30;;;;;;;;;;4940532;29;20193;-82
2021/03/23 09:24:25;;;;;;;20.47;10.77;;;;;;;;;;4944055;29;20217;-82
2021/03/23 09:26:52;;;;;;;16.33;9.75;;;;;;;;;;4923299;29;20480;-80
2021/03/23 09:29:34;;;;;;;12.65;8.82;;;;;;;;;;4932537;29;20201;-81
2021/03/23 09:32:05;;;;;;;14.65;9.57;;;;;;;;;;4943541;29;20180;-81
2021/03/23 09:34:50;;;;;;;19.42;9.30;;;;;;;;;;4927677;28;20200;-79
2021/03/23 09:37:24;;;;;;;18.95;9.07;;;;;;;;;;4926471;29;20208;-80
2021/03/23 09:39:50;;;;;;;15.45;10.45;;;;;;;;;;4940352;29;20197;-80
2021/03/23 09:42:23;;;;;;;12.40;8.63;;;;;;;;;;4922716;29;20843;-80
2021/03/23 09:45:02;;;;;;;17.55;10.07;;;;;;;;;;4939299;29;20201;-82
2021/03/23 09:47:38;;;;;;;16.15;8.85;;;;;;;;;;4991365;28;20626;-80
2021/03/23 09:50:05;;;;;;;16.23;10.52;;;;;;;;;;4995965;28;20188;-80
2021/03/23 09:52:33;;;;;;;19.08;9.63;;;;;;;;;;4995472;28;20194;-80
2021/03/23 09:55:00;;;;;;;20.45;9.90;;;;;;;;;;4991763;28;20187;-80
2021/03/23 09:57:28;;;;;;;12.73;8.80;;;;;;;;;;4994735;28;20211;-80
2021/03/23 09:59:56;;;;;;;17.00;9.82;;;;;;;;;;4997114;28;20285;-79
2021/03/23 10:02:23;;;;;;;14.35;9.70;;;;;;;;;;5003132;28;20186;-81
2021/03/23 10:04:49;;;;;;;14.88;8.98;;;;;;;;;;4998296;28;20295;-81
2021/03/23 10:07:30;;;;;;;14.95;8.60;;;;;;;;;;5013802;28;20186;-81
2021/03/23 10:10:15;;;;;;;16.17;10.82;;;;;;;;;;4997994;28;20190;-80
2021/03/23 10:12:41;;;;;;;17.73;10.40;;;;;;;;;;4997476;28;20214;-81
2021/03/23 10:15:21;;;;;;;12.33;7.87;;;;;;;;;;5006020;28;20178;-80
2021/03/23 10:17:47;;;;;;;17.23;8.88;;;;;;;;;;5001710;28;20494;-82
2021/03/23 10:20:14;;;;;;;15.18;9.73;;;;;;;;;;5003273;28;20175;-81
2021/03/23 10:22:41;;;;;;;13.40;9.40;;;;;;;;;;4994377;28;20183;-79
2021/03/23 10:25:16;;;;;;;17.48;10.45;;;;;;;;;;4997730;28;20567;-80
2021/03/23 10:27:42;;;;;;;16.45;9.75;;;;;;;;;;4998590;28;20202;-80
2021/03/23 10:30:19;;;;;;;20.45;9.38;;;;;;;;;;5001711;28;20193;-80
2021/03/23 10:32:45;;;;;;;12.98;9.63;;;;;;;;;;5002049;28;20190;-80
2021/03/23 10:35:11;;;;;;;15.57;10.00;;;;;;;;;;4997875;28;20187;-80
2021/03/23 10:37:37;;;;;;;15.60;10.10;;;;;;;;;;5002226;28;20199;-80
2021/03/23 10:40:05;;;;;;;14.90;9.50;;;;;;;;;;4997464;28;20210;-81
2021/03/23 10:42:33;;;;;;;17.60;9.30;;;;;;;;;;4997025;28;20196;-80
2021/03/23 10:45:11;;;;;;;15.20;9.30;;;;;;;;;;4997984;28;20187;-80
2021/03/23 10:47:39;;;;;;;15.40;10.18;;;;;;;;;;5002602;28;20182;-80
2021/03/23 10:50:22;;;;;;;16.80;9.65;;;;;;;;;;4996543;28;20203;-80
2021/03/23 10:52:49;;;;;;;15.68;9.43;;;;;;;;;;4999887;28;20175;-80
2021/03/23 10:55:27;;;;;;;13.60;9.07;;;;;;;;;;5017824;28;20245;-79
2021/03/23 10:58:13;;;;;;;16.30;8.57;;;;;;;;;;4997343;28;20203;-79
2021/03/23 11:00:40;;;;;;;14.88;9.10;;;;;;;;;;4996427;28;20275;-79
2021/03/23 11:03:13;;;;;;;15.50;9.57;;;;;;;;;;4998846;28;20411;-79
2021/03/23 11:05:44;;;;;;;15.00;10.20;;;;;;;;;;5000339;28;20187;-80
2021/03/23 11:08:12;;;;;;;18.98;9.20;;;;;;;;;;4996089;28;20179;-80
2021/03/23 11:10:38;;;;;;;17.52;9.05;;;;;;;;;;4999144;28;20228;-80
2021/03/23 11:13:04;;;;;;;18.17;9.88;;;;;;;;;;4996199;28;20188;-80
2021/03/23 11:18:33;;;;;;;15.85;9.45;;;;;;;;;;4989395;28;20196;-79
2021/03/23 11:21:01;;;;;;;17.10;9.43;;;;;;;;;;4999494;28;20186;-80
2021/03/23 11:23:38;;;;;;;19.50;10.27;;;;;;;;;;4997728;28;20191;-80
2021/03/23 11:26:05;;;;;;;14.13;9.85;;;;;;;;;;5001053;28;20180;-80
2021/03/23 11:28:32;;;;;;;22.17;11.60;;;;;;;;;;5002995;28;20183;-81
2021/03/23 11:31:01;;;;;;;16.58;10.27;;;;;;;;;;5002325;28;20648;-80
2021/03/23 11:33:27;;;;;;;16.27;10.80;;;;;;;;;;5004415;28;20179;-80
2021/03/23 11:35:53;;;;;;;13.13;9.82;;;;;;;;;;4999784;28;20196;-80
2021/03/23 11:38:20;;;;;;;15.48;10.05;;;;;;;;;;5004892;28;20235;-80
2021/03/23 11:40:46;;;;;;;16.90;10.45;;;;;;;;;;5003125;28;20178;-79
2021/03/23 11:43:38;;;;;;;14.35;9.30;;;;;;;;;;5000614;28;20179;-80
2021/03/23 11:46:11;;;;;;;13.50;10.18;;;;;;;;;;4966701;28;20693;-80
2021/03/23 11:48:42;;;;;;;18.40;11.48;;;;;;;;;;4965250;28;20192;-80
2021/03/23 11:51:08;;;;;;;18.70;11.30;;;;;;;;;;4983410;28;20196;-79
2021/03/23 11:53:34;;;;;;;16.55;10.40;;;;;;;;;;4967379;28;20363;-80
2021/03/23 11:56:01;;;;;;;21.77;11.50;;;;;;;;;;4967447;28;20176;-80
2021/03/23 11:58:27;;;;;;;13.10;9.77;;;;;;;;;;4984041;28;20557;-79
2021/03/23 12:00:53;;;;;;;19.58;11.13;;;;;;;;;;4983674;28;20219;-79
2021/03/23 12:03:20;;;;;;;14.38;9.77;;;;;;;;;;4983406;28;20199;-80
2021/03/23 12:05:47;;;;;;;20.77;11.93;;;;;;;;;;4982891;28;20233;-78
2021/03/23 12:08:22;;;;;;;15.07;10.45;;;;;;;;;;4978100;28;20244;-78
2021/03/23 12:10:53;;;;;;;18.15;10.65;;;;;;;;;;4970746;28;20213;-79
2021/03/23 12:13:38;;;;;;;14.30;10.10;;;;;;;;;;4983210;28;20178;-79
2021/03/23 12:16:11;;;;;;;17.08;10.90;;;;;;;;;;4977518;28;20232;-80
2021/03/23 12:18:38;;;;;;;18.20;11.57;;;;;;;;;;4981671;28;20201;-80
2021/03/23 12:21:05;;;;;;;15.77;11.60;;;;;;;;;;4979401;28;20253;-79
2021/03/23 12:23:31;;;;;;;16.40;10.45;;;;;;;;;;4987274;28;20198;-79
2021/03/23 12:26:01;;;;;;;11.90;9.87;;;;;;;;;;4999715;28;20800;-80
2021/03/23 12:28:28;;;;;;;15.82;11.18;;;;;;;;;;4993360;28;20513;-79
2021/03/23 12:30:54;;;;;;;17.23;10.07;;;;;;;;;;5002568;28;20264;-79
2021/03/23 12:33:20;;;;;;;17.30;11.93;;;;;;;;;;4999282;28;20425;-77
2021/03/23 12:35:46;;;;;;;14.50;9.67;;;;;;;;;;4998975;28;20402;-79
2021/03/23 12:38:13;;;;;;;16.93;11.47;;;;;;;;;;5013812;28;20408;-79
2021/03/23 12:40:40;;;;;;;12.77;9.90;;;;;;;;;;4998231;28;20921;-77
2021/03/23 12:43:12;;;;;;;16.73;10.03;;;;;;;;;;5001655;28;20444;-76
2021/03/23 12:45:40;;;;;;;12.03;9.90;;;;;;;;;;5001622;28;20922;-76
2021/03/23 12:48:06;;;;;;;11.53;10.33;;;;;;;;;;5000625;28;20556;-78
2021/03/23 12:50:32;;;;;;;12.73;11.20;;;;;;;;;;4999897;28;20438;-78
2021/03/23 12:53:02;;;;;;;13.00;10.43;;;;;;;;;;5000066;28;20492;-78
2021/03/23 12:55:29;;;;;;;12.93;10.57;;;;;;;;;;5001955;28;20431;-78
2021/03/23 12:57:57;;;;;;;14.60;11.67;;;;;;;;;;5000539;28;20467;-77
2021/03/23 13:00:23;;;;;;;16.27;11.40;;;;;;;;;;4999890;28;20516;-77
2021/03/23 13:02:49;;;;;;;11.70;10.50;;;;;;;;;;4994881;28;20439;-77
2021/03/23 13:05:15;;;;;;;12.73;11.13;;;;;;;;;;4994390;28;20441;-77
2021/03/23 13:07:41;;;;;;;12.67;10.97;;;;;;;;;;5013832;28;20425;-78
2021/03/23 13:10:13;;;;;;;13.10;11.80;;;;;;;;;;5003816;28;20534;-78
2021/03/23 13:12:39;;;;;;;13.67;12.30;;;;;;;;;;5009284;28;20478;-78
2021/03/23 13:15:05;;;;;;;14.07;11.67;;;;;;;;;;4998823;28;20447;-77
2021/03/23 13:17:31;;;;;;;12.13;10.33;;;;;;;;;;4990374;28;20480;-77
2021/03/23 13:19:57;;;;;;;12.30;11.00;;;;;;;;;;4997168;28;20490;-78
2021/03/23 13:22:27;;;;;;;16.00;11.20;;;;;;;;;;5009059;28;20432;-77
2021/03/23 13:24:55;;;;;;;15.13;11.40;;;;;;;;;;4996111;28;20436;-76
2021/03/23 13:27:25;;;;;;;13.30;11.20;;;;;;;;;;5002146;28;20453;-77
2021/03/23 13:29:51;;;;;;;13.10;11.60;;;;;;;;;;4997679;28;20522;-77
2021/03/23 13:32:18;;;;;;;14.63;11.07;;;;;;;;;;5001824;28;20470;-78
2021/03/23 13:34:44;;;;;;;13.53;10.50;;;;;;;;;;4999536;28;20453;-78
2021/03/23 13:37:11;;;;;;;12.63;11.33;;;;;;;;;;4996448;28;20469;-77
2021/03/23 13:39:38;;;;;;;12.60;11.30;;;;;;;;;;4998134;28;20439;-77
2021/03/23 13:42:13;;;;;;;14.00;12.60;;;;;;;;;;5001166;28;20434;-78
2021/03/23 13:44:50;;;;;;;13.43;12.20;;;;;;;;;;4988783;28;20445;-77
2021/03/23 13:47:17;;;;;;;13.47;12.03;;;;;;;;;;5013467;28;20532;-77
2021/03/23 13:49:43;;;;;;;13.67;12.20;;;;;;;;;;4999790;28;20476;-77
2021/03/23 13:52:29;;;;;;;14.23;12.87;;;;;;;;;;5009579;28;20441;-77
2021/03/23 13:54:55;;;;;;;12.10;10.80;;;;;;;;;;4997033;28;20460;-77
2021/03/23 13:57:22;;;;;;;14.20;11.77;;;;;;;;;;4998774;28;20955;-78
2021/03/23 13:59:48;;;;;;;11.63;10.30;;;;;;;;;;5000664;28;20442;-77
2021/03/23 14:02:15;;;;;;;17.30;10.63;;;;;;;;;;5002810;28;20461;-77
2021/03/23 14:04:42;;;;;;;13.53;10.70;;;;;;;;;;5000401;28;20425;-79
2021/03/23 14:07:09;;;;;;;13.50;11.70;;;;;;;;;;5001591;28;20445;-77
2021/03/23 14:09:42;;;;;;;14.50;10.80;;;;;;;;;;5000041;28;20474;-78
2021/03/23 14:12:13;;;;;;;12.17;10.87;;;;;;;;;;5001018;28;20547;-78
2021/03/23 14:14:39;;;;;;;14.90;12.17;;;;;;;;;;5011113;28;20857;-77
2021/03/23 14:17:07;;;;;;;15.20;10.63;;;;;;;;;;4989141;28;20466;-78
2021/03/23 14:19:33;;;;;;;13.93;11.60;;;;;;;;;;4997562;28;20807;-78
2021/03/23 14:21:58;;;;;;;11.13;10.00;;;;;;;;;;4997422;28;20489;-79
2021/03/23 14:24:25;;;;;;;14.47;10.70;;;;;;;;;;4999038;28;20466;-77
2021/03/23 14:26:51;;;;;;;11.37;9.90;;;;;;;;;;4997556;28;20434;-77
2021/03/23 14:29:16;;;;;;;12.63;11.20;;;;;;;;;;5002831;28;20477;-77
2021/03/23 14:31:42;;;;;;;13.70;9.70;;;;;;;;;;5001632;28;20446;-78
2021/03/23 14:34:08;;;;;;;14.93;10.70;;;;;;;;;;4997567;28;20799;-77
2021/03/23 14:36:35;;;;;;;11.40;9.47;;;;;;;;;;4998552;28;20476;-78